Time;durP1;ratioP1;P1;durP2;ratioP2;P2;SDS_P1;SDS_P2;PMS_P1;PMS_P2;Temp;Humidity;BMP_temperature;BMP_pressure;BME280_temperature;BME280_humidity;BME280_pressure;Samples;Min_cycle;Max_cycle;Signal;HPM_P1;HPM_P2
2022/12/02 02:30:04;;;;;;;13.53;6.23;;;;;;;-4.62;88.25;101449.06;1829330;74;89915;-66
2022/12/02 02:32:31;;;;;;;14.63;6.20;;;;;;;-4.47;87.65;101448.48;1784774;80;21070;-66
2022/12/02 02:34:58;;;;;;;11.43;6.03;;;;;;;-4.43;87.42;101442.27;1784651;80;21238;-67
2022/12/02 02:37:25;;;;;;;11.63;5.63;;;;;;;-4.27;87.30;101444.24;1784727;79;20954;-66
2022/12/02 02:39:52;;;;;;;12.27;6.03;;;;;;;-4.15;86.95;101443.89;1784554;79;21478;-66
2022/12/02 02:42:19;;;;;;;14.90;6.00;;;;;;;-4.05;85.90;101441.80;1784694;79;21049;-66
2022/12/02 02:44:45;;;;;;;20.83;5.97;;;;;;;-3.89;85.16;101445.01;1784489;79;20997;-66
2022/12/02 02:47:12;;;;;;;13.93;5.57;;;;;;;-3.77;84.51;101436.92;1784546;80;21261;-67
2022/12/02 02:49:39;;;;;;;14.70;5.67;;;;;;;-3.74;84.39;101440.52;1784515;79;20947;-67
2022/12/02 02:52:06;;;;;;;14.17;6.20;;;;;;;-3.72;84.13;101445.33;1784575;80;21538;-66
2022/12/02 02:54:34;;;;;;;13.23;6.27;;;;;;;-3.62;84.23;101443.59;1784348;80;21019;-66
2022/12/02 02:57:01;;;;;;;13.05;6.33;;;;;;;-3.47;83.83;101436.05;1784590;79;20999;-67
2022/12/02 02:59:27;;;;;;;13.43;5.92;;;;;;;-3.45;83.36;101443.41;1784388;79;22137;-67
2022/12/02 03:01:54;;;;;;;11.60;5.20;;;;;;;-3.40;83.03;101432.91;1760250;80;21019;-67
2022/12/02 03:04:21;;;;;;;14.53;5.60;;;;;;;-3.32;82.74;101437.94;1753513;81;21031;-68
2022/12/02 03:06:47;;;;;;;13.98;5.72;;;;;;;-3.26;82.66;101439.90;1753507;81;21018;-68
2022/12/02 03:09:16;;;;;;;16.77;6.37;;;;;;;-3.22;82.08;101438.80;1753525;81;22081;-67
2022/12/02 03:11:43;;;;;;;11.57;6.03;;;;;;;-3.15;81.72;101432.19;1753501;81;21196;-67
2022/12/02 03:14:10;;;;;;;11.28;5.65;;;;;;;-3.10;81.32;101434.53;1766775;80;22189;-67
2022/12/02 03:16:36;;;;;;;12.53;5.60;;;;;;;-3.17;81.58;101442.84;1784575;80;21056;-68
2022/12/02 03:19:03;;;;;;;12.00;5.87;;;;;;;-3.10;81.33;101433.66;1784587;80;20986;-67
2022/12/02 03:21:32;;;;;;;12.07;5.58;;;;;;;-3.08;81.23;101431.99;1784666;79;21064;-66
2022/12/02 03:23:59;;;;;;;13.13;5.85;;;;;;;-3.08;81.33;101435.86;1784584;80;21094;-67
2022/12/02 03:26:27;;;;;;;11.38;5.47;;;;;;;-3.05;81.61;101443.31;1767879;80;21568;-67
2022/12/02 03:28:54;;;;;;;14.47;6.08;;;;;;;-2.99;81.23;101439.70;1784360;80;21084;-68
2022/12/02 03:31:21;;;;;;;11.78;5.22;;;;;;;-2.98;81.17;101432.42;1791168;79;21486;-67
2022/12/02 03:33:47;;;;;;;13.72;5.78;;;;;;;-2.93;81.09;101436.87;1798169;79;21026;-68
2022/12/02 03:36:14;;;;;;;14.85;6.20;;;;;;;-3.02;81.48;101434.41;1798027;79;21796;-68
2022/12/02 03:38:40;;;;;;;11.03;5.67;;;;;;;-2.93;81.27;101436.47;1797750;79;21552;-67
2022/12/02 03:41:07;;;;;;;12.85;5.75;;;;;;;-2.86;81.11;101435.88;1770645;79;21021;-67
2022/12/02 03:43:34;;;;;;;13.62;6.00;;;;;;;-2.82;80.45;101438.18;1797278;79;21014;-68
2022/12/02 03:46:01;;;;;;;10.38;5.20;;;;;;;-2.90;80.99;101437.86;1797704;79;21144;-67
2022/12/02 03:48:28;;;;;;;12.55;5.92;;;;;;;-2.74;80.18;101431.59;1797619;79;21125;-67
2022/12/02 03:50:55;;;;;;;13.25;5.85;;;;;;;-2.75;80.45;101437.17;1797025;79;21017;-67
2022/12/02 03:53:21;;;;;;;14.30;5.80;;;;;;;-2.65;80.38;101437.09;1797349;79;21005;-68
2022/12/02 03:55:48;;;;;;;10.18;5.15;;;;;;;-2.60;79.53;101432.11;1794618;79;21045;-68
2022/12/02 03:58:16;;;;;;;13.17;6.10;;;;;;;-2.57;79.74;101429.67;1752826;81;21581;-69
2022/12/02 04:00:42;;;;;;;13.55;6.25;;;;;;;-2.61;79.83;101432.95;1752484;81;21103;-69
2022/12/02 04:03:09;;;;;;;11.20;5.92;;;;;;;-2.64;80.04;101435.42;1752607;81;21015;-69
2022/12/02 04:05:35;;;;;;;12.70;5.67;;;;;;;-2.78;80.96;101428.04;1752589;81;21031;-67
2022/12/02 04:08:02;;;;;;;13.65;6.53;;;;;;;-2.63;80.16;101431.59;1752415;81;21046;-67
2022/12/02 04:10:29;;;;;;;10.40;5.60;;;;;;;-2.67;80.26;101426.27;1752731;81;21538;-67
2022/12/02 04:12:55;;;;;;;11.60;5.87;;;;;;;-2.63;80.55;101430.72;1752410;81;21122;-67
2022/12/02 04:15:22;;;;;;;12.95;6.17;;;;;;;-2.60;80.30;101430.44;1794384;79;21009;-67
2022/12/02 04:17:48;;;;;;;13.80;6.35;;;;;;;-2.51;80.34;101429.87;1797829;79;21026;-67
2022/12/02 04:20:15;;;;;;;16.20;7.28;;;;;;;-2.64;80.61;101432.84;1797341;79;21064;-67
2022/12/02 04:22:42;;;;;;;12.47;6.58;;;;;;;-2.54;80.50;101434.93;1797188;79;20997;-68
2022/12/02 04:25:08;;;;;;;15.63;7.45;;;;;;;-2.33;79.96;101427.97;1797282;79;21228;-69
2022/12/02 04:27:35;;;;;;;16.90;6.70;;;;;;;-2.46;79.91;101430.95;1797265;79;21528;-67
2022/12/02 04:30:03;;;;;;;14.73;6.83;;;;;;;-2.50;80.13;101430.36;1797302;79;21206;-66
2022/12/02 04:32:30;;;;;;;14.80;6.92;;;;;;;-2.48;80.08;101432.59;1802275;79;21052;-68
2022/12/02 04:34:56;;;;;;;16.30;6.08;;;;;;;-2.43;80.11;101428.89;1803133;79;21033;-67
2022/12/02 04:37:23;;;;;;;11.10;5.80;;;;;;;-2.39;80.27;101430.34;1802982;79;21191;-67
2022/12/02 04:39:50;;;;;;;10.95;5.70;;;;;;;-2.40;79.85;101428.56;1802851;79;21620;-67
2022/12/02 04:42:16;;;;;;;13.28;5.70;;;;;;;-2.49;80.08;101419.63;1802744;79;21045;-68
2022/12/02 04:44:42;;;;;;;15.88;6.00;;;;;;;-2.63;80.54;101429.43;1803067;79;21018;-67
2022/12/02 06:13:18;;;;;;;19.50;8.20;;;;;;;-4.24;99.50;101461.09;1809446;77;22635;-89
2022/12/02 06:15:46;;;;;;;19.23;8.03;;;;;;;-3.81;96.44;101462.96;1740166;81;26235;-89
2022/12/02 06:18:17;;;;;;;17.57;8.00;;;;;;;-3.65;95.21;101467.94;1712811;82;21115;-87
2022/12/02 06:20:45;;;;;;;23.52;10.03;;;;;;;-3.44;94.15;101461.50;1744359;81;20877;-88
2022/12/02 06:23:17;;;;;;;30.97;15.27;;;;;;;-3.21;92.41;101457.28;1740915;81;21017;-88
2022/12/02 06:25:43;;;;;;;43.47;22.17;;;;;;;-3.05;91.72;101463.06;1735771;81;20934;-88
2022/12/02 06:28:24;;;;;;;37.98;19.42;;;;;;;-3.08;90.94;101459.05;1742675;81;21083;-88
2022/12/02 06:30:54;;;;;;;24.33;10.93;;;;;;;-2.93;91.07;101459.66;1760931;81;21092;-90
2022/12/02 06:33:31;;;;;;;43.48;22.20;;;;;;;-2.84;90.01;101460.44;1749293;81;21009;-88
2022/12/02 06:36:00;;;;;;;182.82;87.65;;;;;;;-2.79;89.79;101459.78;1746356;82;21049;-89
2022/12/02 06:38:33;;;;;;;92.37;39.23;;;;;;;-2.64;89.04;101459.50;1743692;81;21025;-89
2022/12/02 06:41:22;;;;;;;103.92;46.18;;;;;;;-2.46;88.11;101468.73;1747137;81;21119;-89
2022/12/02 06:46:35;;;;;;;90.28;38.13;;;;;;;-2.29;87.67;101473.25;1710087;83;21053;-88
2022/12/02 06:49:22;;;;;;;42.08;17.07;;;;;;;-2.25;87.38;101466.09;1670603;83;21069;-90
2022/12/02 06:51:57;;;;;;;67.00;22.52;;;;;;;-2.26;86.60;101470.36;1708703;83;21652;-89
2022/12/02 06:54:28;;;;;;;50.95;18.50;;;;;;;-2.11;86.43;101467.47;1709118;84;21041;-90
2022/12/02 06:56:57;;;;;;;84.95;24.75;;;;;;;-1.98;86.52;101474.83;1704722;83;21811;-88
2022/12/02 06:59:23;;;;;;;121.82;44.38;;;;;;;-1.83;85.47;101471.90;1705977;83;21010;-90
2022/12/02 07:01:57;;;;;;;386.02;105.65;;;;;;;-1.67;84.86;101475.89;1701085;83;21532;-89
2022/12/02 07:04:45;;;;;;;332.67;81.97;;;;;;;-1.58;83.24;101478.79;1710457;83;21014;-90
2022/12/02 07:07:31;;;;;;;82.62;30.68;;;;;;;-1.53;83.48;101476.36;1710062;83;21073;-91
2022/12/02 07:10:11;;;;;;;44.15;16.57;;;;;;;-1.51;82.00;101480.75;1702963;83;21596;-89
2022/12/02 07:12:41;;;;;;;130.50;36.60;;;;;;;-1.33;81.37;101482.20;1715361;83;21061;-90
2022/12/02 07:15:34;;;;;;;53.38;18.40;;;;;;;-1.52;81.46;101482.88;1680352;81;21069;-90
2022/12/02 07:18:17;;;;;;;266.33;68.10;;;;;;;-1.57;81.67;101480.53;1712018;82;21069;-90
2022/12/02 07:20:44;;;;;;;49.65;23.95;;;;;;;-1.59;81.68;101483.47;1717521;81;21092;-89
2022/12/02 07:23:20;;;;;;;130.27;40.78;;;;;;;-1.50;81.48;101484.20;1717207;82;21143;-90
2022/12/02 07:25:54;;;;;;;125.85;35.80;;;;;;;-1.46;81.20;101474.87;1708985;81;21065;-91
2022/12/02 07:28:31;;;;;;;45.52;17.17;;;;;;;-1.41;81.36;101481.93;1683531;85;21124;-90
2022/12/02 07:31:20;;;;;;;42.50;14.68;;;;;;;-1.43;80.62;101470.66;1709879;83;21148;-91
2022/12/02 07:33:47;;;;;;;23.65;10.28;;;;;;;-1.42;80.39;101471.56;1714418;82;21179;-92
2022/12/02 07:36:15;;;;;;;72.47;19.57;;;;;;;-1.53;80.31;101473.36;1713318;83;21217;-91
2022/12/02 07:38:41;;;;;;;30.68;12.75;;;;;;;-1.53;80.76;101472.06;1713552;83;22120;-90
2022/12/02 07:41:08;;;;;;;58.13;15.65;;;;;;;-1.52;80.29;101468.67;1714763;82;21148;-89
2022/12/02 07:43:38;;;;;;;24.07;11.60;;;;;;;-1.49;80.70;101470.05;1716623;81;21080;-89
2022/12/02 07:46:05;;;;;;;32.60;14.20;;;;;;;-1.33;80.16;101471.87;1716539;83;21017;-90
2022/12/02 07:48:31;;;;;;;42.70;15.55;;;;;;;-1.22;80.12;101474.39;1717885;83;22103;-88
2022/12/02 07:50:57;;;;;;;38.08;14.05;;;;;;;-1.16;79.78;101473.27;1712266;83;21060;-90
2022/12/02 07:53:26;;;;;;;47.93;15.60;;;;;;;-1.17;79.38;101475.41;1713102;83;21036;-90
2022/12/02 07:55:52;;;;;;;25.57;10.38;;;;;;;-1.19;79.98;101471.89;1722237;82;21237;-91
2022/12/02 07:58:19;;;;;;;31.73;11.60;;;;;;;-1.14;78.63;101476.79;1717125;83;21100;-91
2022/12/02 08:00:45;;;;;;;29.12;12.30;;;;;;;-1.04;78.81;101478.38;1714761;83;21246;-88
2022/12/02 08:03:12;;;;;;;41.18;13.38;;;;;;;-0.89;78.64;101472.41;1669670;84;21167;-89
2022/12/02 08:05:38;;;;;;;50.00;14.58;;;;;;;-0.89;77.59;101474.56;1725087;79;21093;-87
2022/12/02 08:08:05;;;;;;;38.58;18.65;;;;;;;-0.83;78.07;101475.16;1714194;79;21013;-91
2022/12/02 08:10:32;;;;;;;34.38;14.90;;;;;;;-0.94;77.24;101479.15;1707019;82;20970;-90
2022/12/02 08:12:58;;;;;;;28.07;12.33;;;;;;;-0.78;76.02;101480.09;1713425;82;21207;-88
2022/12/02 08:15:25;;;;;;;30.00;11.12;;;;;;;-1.00;76.83;101481.53;1717353;83;21003;-88
2022/12/02 08:17:52;;;;;;;29.52;12.65;;;;;;;-0.88;76.28;101472.86;1714055;83;21013;-88
2022/12/02 08:20:20;;;;;;;30.27;11.60;;;;;;;-0.84;75.80;101482.47;1750925;80;20973;-89
2022/12/02 08:22:47;;;;;;;27.93;11.63;;;;;;;-0.84;75.91;101476.00;1713729;83;21065;-88
2022/12/02 08:25:16;;;;;;;40.43;12.82;;;;;;;-0.78;74.66;101477.50;1699547;82;21170;-88
2022/12/02 08:27:43;;;;;;;38.53;14.03;;;;;;;-0.75;75.78;101475.42;1698678;82;21000;-89
2022/12/02 08:30:22;;;;;;;30.15;12.50;;;;;;;-0.69;75.66;101473.00;1697681;82;21035;-90
2022/12/02 08:32:49;;;;;;;34.55;12.93;;;;;;;-0.68;74.51;101471.76;1695170;82;21024;-88
2022/12/02 08:35:17;;;;;;;37.48;14.33;;;;;;;-0.48;74.07;101472.78;1719382;83;21033;-89
2022/12/02 08:37:43;;;;;;;32.88;10.45;;;;;;;-0.42;72.94;101472.94;1749352;81;21878;-88
2022/12/02 08:40:10;;;;;;;38.15;15.55;;;;;;;-0.37;72.62;101464.89;1747264;82;21014;-88
2022/12/02 08:42:37;;;;;;;34.78;13.10;;;;;;;-0.33;73.11;101473.21;1711245;83;20993;-89
2022/12/02 08:45:05;;;;;;;37.65;13.65;;;;;;;-0.06;72.14;101473.55;1697522;82;21051;-88
2022/12/02 08:47:33;;;;;;;31.07;12.30;;;;;;;0.14;71.34;101464.61;1721413;83;21049;-89
2022/12/02 08:49:59;;;;;;;16.62;8.15;;;;;;;0.65;69.56;101467.22;1733193;80;21058;-89
2022/12/02 08:52:26;;;;;;;20.25;9.00;;;;;;;0.62;67.47;101458.94;1754736;80;21091;-89
2022/12/02 08:54:52;;;;;;;56.83;20.08;;;;;;;0.88;66.30;101459.99;1714086;83;21056;-90
2022/12/02 08:57:19;;;;;;;23.38;9.30;;;;;;;0.88;66.04;101459.99;1694492;82;21075;-89
2022/12/02 08:59:46;;;;;;;23.42;9.08;;;;;;;0.91;65.22;101457.89;1724234;83;20985;-89
2022/12/02 09:02:14;;;;;;;22.37;8.28;;;;;;;1.02;65.32;101457.30;1718182;83;21355;-90
2022/12/02 09:04:41;;;;;;;21.15;8.63;;;;;;;1.02;65.34;101459.89;1711296;84;21110;-90
2022/12/02 09:07:08;;;;;;;79.50;32.13;;;;;;;1.16;64.92;101459.34;1717210;83;21052;-89
2022/12/02 09:09:34;;;;;;;32.05;10.95;;;;;;;1.19;65.51;101453.78;1719736;79;20911;-90
2022/12/02 09:12:01;;;;;;;21.12;9.03;;;;;;;1.24;64.94;101456.47;1755071;80;20982;-89
2022/12/02 09:14:28;;;;;;;25.57;9.53;;;;;;;1.49;63.58;101447.93;1772261;80;21645;-88
2022/12/02 09:16:55;;;;;;;23.85;10.75;;;;;;;1.46;64.25;101452.64;1784509;80;20987;-90
2022/12/02 09:19:22;;;;;;;24.10;12.60;;;;;;;1.30;64.74;101450.13;1779977;80;21291;-91
2022/12/02 09:21:48;;;;;;;25.37;10.15;;;;;;;1.65;64.39;101447.41;1788306;80;21072;-90
2022/12/02 09:24:14;;;;;;;27.13;9.95;;;;;;;1.74;63.32;101446.29;1785113;80;21052;-92
2022/12/02 09:26:41;;;;;;;23.07;10.28;;;;;;;1.73;63.62;101439.36;1775429;80;21097;-89
2022/12/02 09:29:07;;;;;;;22.45;10.00;;;;;;;1.85;61.82;101449.98;1783393;80;21080;-89
2022/12/02 09:31:34;;;;;;;29.12;13.58;;;;;;;1.84;62.53;101449.55;1776148;79;20986;-91
2022/12/02 09:34:01;;;;;;;23.05;9.20;;;;;;;1.83;62.07;101446.48;1784697;80;21072;-88
2022/12/02 09:36:28;;;;;;;25.57;10.48;;;;;;;1.81;62.45;101445.56;1784106;80;21064;-88
2022/12/02 09:38:54;;;;;;;33.95;11.85;;;;;;;1.99;62.51;101446.78;1778635;80;21159;-89
2022/12/02 09:41:21;;;;;;;27.32;11.88;;;;;;;1.99;62.04;101449.38;1783635;80;21046;-89
2022/12/02 09:43:48;;;;;;;20.52;7.65;;;;;;;2.12;61.87;101438.38;1780699;80;21127;-88
2022/12/02 09:46:14;;;;;;;17.15;7.65;;;;;;;2.26;60.93;101442.09;1782263;80;20981;-88
2022/12/02 09:48:41;;;;;;;23.47;8.25;;;;;;;2.07;59.90;101445.19;1784385;80;21021;-88
2022/12/02 09:51:08;;;;;;;27.90;11.90;;;;;;;1.86;60.75;101444.36;1784261;80;21074;-89
2022/12/02 09:53:38;;;;;;;22.42;10.13;;;;;;;1.12;62.05;101443.23;1779113;80;21037;-88
2022/12/02 09:56:07;;;;;;;20.43;9.80;;;;;;;1.40;61.97;101448.21;1792165;80;21021;-87
2022/12/02 09:58:34;;;;;;;32.73;13.68;;;;;;;1.39;63.07;101441.67;1779055;80;21025;-89
2022/12/02 10:01:01;;;;;;;25.10;11.63;;;;;;;0.96;64.03;101437.69;1692424;82;21071;-86
2022/12/02 10:03:27;;;;;;;23.27;10.65;;;;;;;1.11;64.31;101445.39;1705737;82;21346;-87
2022/12/02 10:05:55;;;;;;;22.60;9.30;;;;;;;1.14;64.55;101441.55;1717352;82;21088;-88
2022/12/02 10:08:26;;;;;;;17.10;8.88;;;;;;;1.10;64.51;101440.59;1716562;82;21014;-90
2022/12/02 10:10:56;;;;;;;23.40;10.10;;;;;;;1.16;64.52;101440.74;1705964;82;21077;-89
2022/12/02 10:13:25;;;;;;;21.10;9.23;;;;;;;1.17;64.53;101444.20;1684240;82;21093;-89
2022/12/02 10:15:52;;;;;;;16.12;7.85;;;;;;;1.38;64.23;101438.21;1679992;84;21138;-89
2022/12/02 10:18:26;;;;;;;19.40;9.25;;;;;;;1.24;63.55;101442.20;1684353;84;21032;-90
2022/12/02 13:52:03;;;;;;;20.43;10.40;;;;;;;-2.29;86.10;101469.38;1880486;75;22625;-90
2022/12/02 13:54:33;;;;;;;23.10;9.80;;;;;;;-1.83;84.28;101469.31;1862899;77;20961;-89
2022/12/02 13:56:59;;;;;;;23.90;10.55;;;;;;;-1.59;82.45;101473.14;1863376;77;21106;-90
2022/12/02 13:59:27;;;;;;;33.20;11.28;;;;;;;-1.45;81.89;101474.02;1863400;77;20858;-89
2022/12/02 14:01:55;;;;;;;26.07;11.10;;;;;;;-1.39;81.50;101475.53;1796059;77;20972;-90
2022/12/02 14:04:25;;;;;;;23.27;11.30;;;;;;;-1.34;80.74;101472.67;1862154;76;20938;-90
2022/12/02 14:06:53;;;;;;;20.92;10.82;;;;;;;-1.15;80.31;101470.27;1832963;77;20945;-92
2022/12/02 14:09:19;;;;;;;25.25;11.38;;;;;;;-1.13;78.36;101465.64;1861754;77;21182;-90
2022/12/02 14:11:49;;;;;;;20.35;10.38;;;;;;;-1.16;78.63;101465.52;1862082;77;21011;-92
2022/12/02 14:14:15;;;;;;;26.68;12.50;;;;;;;-1.16;78.90;101469.39;1862774;77;21003;-89
2022/12/02 14:16:45;;;;;;;20.40;10.23;;;;;;;-1.06;78.72;101474.44;1863167;77;20993;-90
2022/12/02 14:19:17;;;;;;;23.12;10.35;;;;;;;-1.06;77.51;101486.98;1862815;77;21071;-90
2022/12/02 14:21:46;;;;;;;21.68;9.90;;;;;;;-0.97;75.52;101479.03;1832272;77;22384;-88
2022/12/02 14:24:16;;;;;;;20.43;10.08;;;;;;;-0.97;75.12;101486.78;1862891;77;21344;-89
2022/12/02 14:26:44;;;;;;;20.60;10.32;;;;;;;-0.89;74.31;101478.45;1863379;77;21006;-89
2022/12/02 14:29:13;;;;;;;21.73;10.30;;;;;;;-0.96;75.40;101485.98;1863925;77;20993;-90
2022/12/02 14:31:43;;;;;;;23.47;9.70;;;;;;;-0.73;74.30;101477.22;1862509;77;21047;-90
2022/12/02 14:34:12;;;;;;;;;;;;;;;-0.69;74.37;101480.36;1830819;78;21295;-90
2022/12/02 14:36:41;;;;;;;23.50;11.15;;;;;;;-0.82;74.57;101478.23;1828445;78;20247;-91
2022/12/02 14:39:08;;;;;;;26.33;12.20;;;;;;;-0.87;74.84;101478.51;1827551;78;21549;-91
2022/12/02 14:41:36;;;;;;;29.80;12.93;;;;;;;-0.82;73.98;101478.23;1826856;78;21028;-92
2022/12/02 14:44:05;;;;;;;28.02;12.03;;;;;;;-0.85;73.71;101471.67;1827319;78;21005;-91
2022/12/02 14:46:35;;;;;;;28.95;12.18;;;;;;;-0.86;72.57;101481.55;1827590;78;21138;-90
2022/12/02 14:49:03;;;;;;;29.52;12.70;;;;;;;-0.79;73.14;101479.60;1826972;78;21786;-90
2022/12/02 14:51:30;;;;;;;28.87;12.68;;;;;;;-0.55;71.84;101481.17;1826208;77;21021;-90
2022/12/02 14:53:56;;;;;;;26.50;10.35;;;;;;;-0.94;72.61;101479.15;1826962;78;21639;-90
2022/12/02 14:56:26;;;;;;;24.15;10.95;;;;;;;-0.86;72.41;101473.78;1827445;78;21545;-89
2022/12/02 14:58:55;;;;;;;27.37;10.70;;;;;;;-0.92;72.37;101479.66;1827460;78;21200;-90
2022/12/02 15:01:22;;;;;;;31.68;12.15;;;;;;;-0.83;72.02;101475.16;1827533;78;20997;-90
2022/12/02 15:03:52;;;;;;;25.15;11.05;;;;;;;-0.59;71.52;101481.94;1826980;78;20993;-90
2022/12/02 15:06:20;;;;;;;23.73;11.63;;;;;;;-0.50;71.21;101487.39;1827257;78;21013;-90
2022/12/02 15:08:46;;;;;;;39.05;12.05;;;;;;;-0.44;70.95;101483.67;1827074;78;21225;-89
2022/12/02 15:11:15;;;;;;;28.27;11.35;;;;;;;-0.38;70.82;101487.73;1827101;78;21293;-88
2022/12/02 15:13:45;;;;;;;25.65;10.93;;;;;;;-0.27;70.52;101481.59;1831558;77;20994;-89
2022/12/02 15:16:13;;;;;;;33.45;12.80;;;;;;;-0.45;71.24;101484.09;1846607;77;20993;-90
2022/12/02 15:18:54;;;;;;;24.40;12.00;;;;;;;-0.43;71.21;101482.85;1845357;77;21055;-91
2022/12/02 15:21:27;;;;;;;25.52;11.68;;;;;;;-0.54;71.86;101488.13;1837729;76;21470;-92
2022/12/02 15:23:58;;;;;;;29.37;12.90;;;;;;;-0.47;72.06;101482.30;1845532;77;21119;-91
2022/12/02 15:26:25;;;;;;;33.40;13.20;;;;;;;-0.50;71.73;101487.39;1845617;77;20998;-91
2022/12/02 15:28:51;;;;;;;27.45;12.68;;;;;;;-0.50;72.23;101483.50;1845644;77;21053;-91
2022/12/02 15:31:19;;;;;;;24.92;11.48;;;;;;;-0.47;72.80;101478.41;1817958;77;21079;-92
2022/12/02 15:33:47;;;;;;;32.93;12.98;;;;;;;-0.37;72.10;101483.01;1845794;77;21103;-91
2022/12/02 15:36:15;;;;;;;25.80;10.80;;;;;;;-0.31;71.82;101481.91;1845851;77;21689;-92
2022/12/02 15:38:42;;;;;;;21.87;11.60;;;;;;;-0.53;71.64;101487.27;1845720;77;21497;-90
2022/12/02 15:41:13;;;;;;;26.65;12.73;;;;;;;-0.51;71.49;101486.48;1845821;76;21500;-91
2022/12/02 15:43:41;;;;;;;33.58;14.30;;;;;;;-0.43;72.01;101487.61;1845889;76;21068;-92
2022/12/02 15:46:07;;;;;;;26.85;14.40;;;;;;;-0.41;72.31;101491.55;1846239;77;21083;-90
2022/12/02 15:48:34;;;;;;;29.15;13.40;;;;;;;-0.31;72.87;101488.80;1845843;76;22168;-91
2022/12/02 15:51:01;;;;;;;28.15;13.62;;;;;;;-0.26;73.32;101484.20;1845723;76;21028;-92
2022/12/02 15:53:33;;;;;;;24.95;11.28;;;;;;;-0.14;73.19;101481.50;1845539;77;21525;-90
2022/12/02 15:56:02;;;;;;;21.30;11.83;;;;;;;-0.11;74.01;101480.31;1846639;77;21040;-90
2022/12/02 15:58:32;;;;;;;25.87;12.23;;;;;;;-0.10;73.56;101483.35;1847369;77;21033;-91
2022/12/02 16:00:59;;;;;;;27.02;12.47;;;;;;;-0.22;73.35;101482.17;1848362;76;21066;-90
2022/12/02 16:03:25;;;;;;;25.55;13.05;;;;;;;-0.14;73.82;101484.09;1846657;77;20962;-91
2022/12/02 16:05:54;;;;;;;30.72;13.58;;;;;;;-0.22;74.08;101481.30;1846023;77;21013;-90
2022/12/02 16:08:21;;;;;;;28.05;12.85;;;;;;;-0.22;74.72;101483.46;1818226;77;21044;-91
2022/12/02 16:10:53;;;;;;;30.08;13.50;;;;;;;-0.22;74.24;101482.59;1845664;77;21072;-90
2022/12/02 16:13:24;;;;;;;28.65;14.80;;;;;;;-0.18;73.75;101480.95;1835264;77;21496;-89
2022/12/02 16:15:51;;;;;;;31.35;15.90;;;;;;;-0.19;74.05;101481.80;1817321;77;21686;-92
2022/12/02 16:18:20;;;;;;;35.70;18.00;;;;;;;-0.14;73.64;101480.20;1845464;77;21111;-91
2022/12/02 16:20:47;;;;;;;31.05;16.25;;;;;;;-0.20;74.03;101482.64;1838646;77;21020;-90
2022/12/02 16:23:15;;;;;;;37.13;17.82;;;;;;;-0.28;73.88;101488.88;1825709;78;21032;-91
2022/12/02 16:25:43;;;;;;;37.67;18.10;;;;;;;-0.32;74.40;101484.05;1826011;78;21720;-90
2022/12/02 16:28:12;;;;;;;34.50;18.42;;;;;;;-0.36;75.12;101485.20;1825829;77;21044;-91
2022/12/02 16:30:43;;;;;;;41.50;16.87;;;;;;;-0.38;74.93;101488.16;1825745;78;21103;-91
2022/12/02 16:33:13;;;;;;;38.17;16.60;;;;;;;-0.36;75.13;101483.48;1825561;78;20993;-90
2022/12/02 16:35:42;;;;;;;25.88;13.03;;;;;;;-0.49;75.62;101482.23;1825664;78;21106;-91
2022/12/02 16:38:15;;;;;;;28.57;15.70;;;;;;;-0.39;75.38;101488.59;1826507;77;21064;-88
2022/12/02 16:40:41;;;;;;;24.87;13.62;;;;;;;-0.31;74.85;101487.08;1828345;78;21024;-87
2022/12/02 16:43:08;;;;;;;29.42;12.70;;;;;;;-0.34;73.94;101484.41;1827033;78;21056;-88
2022/12/02 16:45:34;;;;;;;32.55;13.50;;;;;;;-0.31;72.23;101483.20;1827040;78;21615;-88
2022/12/02 16:48:02;;;;;;;110.48;55.48;;;;;;;-0.42;72.59;101487.18;1827558;78;21044;-88
2022/12/02 16:50:32;;;;;;;366.48;152.47;;;;;;;-0.33;72.17;101488.74;1827567;78;21321;-89
2022/12/02 16:52:59;;;;;;;281.68;113.70;;;;;;;-0.26;72.04;101488.51;1816619;79;20979;-88
2022/12/02 16:55:26;;;;;;;636.52;286.65;;;;;;;-0.29;72.23;101490.59;1816995;78;20979;-88
2022/12/02 16:57:55;;;;;;;163.85;53.15;;;;;;;-0.32;72.22;101494.40;1817301;78;21034;-90
2022/12/02 17:00:22;;;;;;;70.80;28.65;;;;;;;-0.29;72.18;101493.19;1816511;78;20951;-90
2022/12/02 17:02:52;;;;;;;73.10;24.25;;;;;;;-0.19;71.92;101503.80;1817869;78;21090;-89
2022/12/02 17:05:19;;;;;;;57.78;18.40;;;;;;;-0.25;71.08;101497.63;1818073;79;21057;-91
2022/12/02 17:07:51;;;;;;;48.83;17.98;;;;;;;-0.14;71.03;101491.86;1817528;79;21058;-90
2022/12/02 17:10:22;;;;;;;27.37;12.55;;;;;;;-0.18;70.89;101501.66;1791571;79;21077;-91
2022/12/02 17:12:51;;;;;;;100.90;38.70;;;;;;;-0.30;70.71;101504.39;1816227;79;25443;-91
2022/12/02 17:15:21;;;;;;;173.55;60.38;;;;;;;-0.28;71.36;101499.23;1816213;78;21107;-90
2022/12/02 17:17:49;;;;;;;224.52;60.20;;;;;;;-0.28;70.77;101503.98;1791566;79;21038;-91
2022/12/02 17:20:18;;;;;;;55.17;16.82;;;;;;;-0.13;71.01;101494.50;1817210;79;20944;-90
2022/12/02 17:22:50;;;;;;;44.15;15.13;;;;;;;-0.07;70.46;101501.16;1817246;79;21107;-92
2022/12/02 17:25:22;;;;;;;30.45;11.53;;;;;;;-0.16;70.51;101500.00;1817520;78;22304;-89
2022/12/02 17:27:52;;;;;;;89.05;21.25;;;;;;;-0.30;71.04;101506.08;1792917;79;21130;-90
2022/12/02 17:30:19;;;;;;;85.38;20.57;;;;;;;-0.33;70.98;101505.99;1787334;78;87763;-82
2022/12/02 17:32:46;;;;;;;64.50;17.10;;;;;;;-0.22;70.73;101505.47;1750187;80;21022;-82
2022/12/02 17:35:13;;;;;;;31.37;12.58;;;;;;;-0.25;70.89;101509.27;1781632;80;21046;-80
2022/12/02 17:37:40;;;;;;;79.67;21.55;;;;;;;-0.24;70.50;101507.56;1781440;80;21517;-83
2022/12/02 17:40:09;;;;;;;27.45;12.15;;;;;;;-0.12;70.70;101510.91;1781522;80;21193;-82
2022/12/02 17:42:36;;;;;;;30.48;12.60;;;;;;;-0.22;70.54;101508.06;1781478;80;21520;-81
2022/12/02 17:45:02;;;;;;;100.67;33.92;;;;;;;-0.15;70.30;101504.36;1780841;80;21757;-82
2022/12/02 17:47:29;;;;;;;51.18;23.10;;;;;;;-0.26;71.00;101513.97;1781060;80;21072;-82
2022/12/02 17:49:56;;;;;;;219.55;65.55;;;;;;;-0.26;70.52;101512.67;1781366;80;21005;-83
2022/12/02 17:52:23;;;;;;;53.75;19.32;;;;;;;-0.29;71.24;101515.61;1780998;80;21106;-83
2022/12/02 17:54:50;;;;;;;67.92;21.33;;;;;;;-0.31;71.49;101506.50;1778962;80;21077;-83
2022/12/02 17:57:17;;;;;;;42.27;16.20;;;;;;;-0.13;70.64;101511.77;1779531;80;21061;-82
2022/12/02 17:59:43;;;;;;;46.65;15.55;;;;;;;-0.32;71.38;101513.81;1778677;80;21041;-82
2022/12/02 18:02:17;;;;;;;73.67;19.90;;;;;;;-0.02;70.58;101516.83;1778419;80;21124;-82
